sensor_id;sensor_type;location;lat;lon;timestamp;P1;durP1;ratioP1;P2;durP2;ratioP2
5349;SDS011;2697;42.144;24.794;2023-07-29T00:01:36;7.23;;;3.73;;
5349;SDS011;2697;42.144;24.794;2023-07-29T00:04:02;4.50;;;3.53;;
5349;SDS011;2697;42.144;24.794;2023-07-29T00:06:27;7.60;;;3.50;;
5349;SDS011;2697;42.144;24.794;2023-07-29T00:08:53;5.20;;;3.37;;
5349;SDS011;2697;42.144;24.794;2023-07-29T00:11:18;6.40;;;3.90;;
5349;SDS011;2697;42.144;24.794;2023-07-29T00:13:44;6.03;;;3.87;;
5349;SDS011;2697;42.144;24.794;2023-07-29T00:16:09;5.37;;;2.97;;
5349;SDS011;2697;42.144;24.794;2023-07-29T00:18:35;5.60;;;4.10;;
5349;SDS011;2697;42.144;24.794;2023-07-29T00:21:00;3.60;;;2.90;;
5349;SDS011;2697;42.144;24.794;2023-07-29T00:23:25;5.23;;;3.00;;
5349;SDS011;2697;42.144;24.794;2023-07-29T00:25:51;15.57;;;4.43;;
5349;SDS011;2697;42.144;24.794;2023-07-29T00:28:16;6.50;;;3.30;;
5349;SDS011;2697;42.144;24.794;2023-07-29T00:30:43;4.70;;;3.40;;
5349;SDS011;2697;42.144;24.794;2023-07-29T00:33:08;8.20;;;3.10;;
5349;SDS011;2697;42.144;24.794;2023-07-29T00:35:34;9.90;;;3.90;;
5349;SDS011;2697;42.144;24.794;2023-07-29T00:37:59;4.47;;;3.03;;
5349;SDS011;2697;42.144;24.794;2023-07-29T00:40:25;9.77;;;2.93;;
5349;SDS011;2697;42.144;24.794;2023-07-29T00:42:53;19.30;;;4.10;;
5349;SDS011;2697;42.144;24.794;2023-07-29T00:45:18;9.73;;;4.80;;
5349;SDS011;2697;42.144;24.794;2023-07-29T00:47:44;9.27;;;3.20;;
5349;SDS011;2697;42.144;24.794;2023-07-29T00:50:10;9.23;;;3.43;;
5349;SDS011;2697;42.144;24.794;2023-07-29T00:52:37;6.77;;;2.83;;
5349;SDS011;2697;42.144;24.794;2023-07-29T00:55:04;7.93;;;4.00;;
5349;SDS011;2697;42.144;24.794;2023-07-29T00:57:30;9.40;;;4.43;;
5349;SDS011;2697;42.144;24.794;2023-07-29T00:59:55;7.00;;;3.70;;
5349;SDS011;2697;42.144;24.794;2023-07-29T01:02:21;12.93;;;3.83;;
5349;SDS011;2697;42.144;24.794;2023-07-29T01:04:54;7.63;;;4.03;;
5349;SDS011;2697;42.144;24.794;2023-07-29T01:10:02;15.13;;;4.00;;
5349;SDS011;2697;42.144;24.794;2023-07-29T01:18:05;9.13;;;3.70;;
5349;SDS011;2697;42.144;24.794;2023-07-29T01:20:33;11.30;;;4.73;;
5349;SDS011;2697;42.144;24.794;2023-07-29T01:23:03;9.33;;;3.90;;
5349;SDS011;2697;42.144;24.794;2023-07-29T01:25:30;9.17;;;4.20;;
5349;SDS011;2697;42.144;24.794;2023-07-29T01:27:55;9.93;;;2.80;;
5349;SDS011;2697;42.144;24.794;2023-07-29T01:30:22;11.10;;;3.87;;
5349;SDS011;2697;42.144;24.794;2023-07-29T01:32:55;15.93;;;3.03;;
5349;SDS011;2697;42.144;24.794;2023-07-29T01:35:45;4.40;;;2.83;;
5349;SDS011;2697;42.144;24.794;2023-07-29T01:40:43;6.10;;;3.40;;
5349;SDS011;2697;42.144;24.794;2023-07-29T01:43:10;14.53;;;3.27;;
5349;SDS011;2697;42.144;24.794;2023-07-29T01:45:36;5.67;;;3.77;;
5349;SDS011;2697;42.144;24.794;2023-07-29T01:48:05;5.00;;;3.30;;
5349;SDS011;2697;42.144;24.794;2023-07-29T01:50:30;10.00;;;3.70;;
5349;SDS011;2697;42.144;24.794;2023-07-29T01:52:57;5.40;;;3.27;;
5349;SDS011;2697;42.144;24.794;2023-07-29T01:55:22;5.53;;;2.90;;
5349;SDS011;2697;42.144;24.794;2023-07-29T01:57:48;14.67;;;3.90;;
5349;SDS011;2697;42.144;24.794;2023-07-29T02:00:13;7.70;;;4.17;;
5349;SDS011;2697;42.144;24.794;2023-07-29T02:02:39;8.17;;;3.20;;
5349;SDS011;2697;42.144;24.794;2023-07-29T02:05:04;12.60;;;3.93;;
5349;SDS011;2697;42.144;24.794;2023-07-29T02:07:30;12.70;;;3.60;;
5349;SDS011;2697;42.144;24.794;2023-07-29T02:09:55;8.10;;;3.60;;
5349;SDS011;2697;42.144;24.794;2023-07-29T02:12:20;10.70;;;3.43;;
5349;SDS011;2697;42.144;24.794;2023-07-29T02:14:46;19.60;;;3.50;;
5349;SDS011;2697;42.144;24.794;2023-07-29T02:17:11;10.43;;;3.30;;
5349;SDS011;2697;42.144;24.794;2023-07-29T02:19:36;15.63;;;4.10;;
5349;SDS011;2697;42.144;24.794;2023-07-29T02:22:02;14.57;;;6.40;;
5349;SDS011;2697;42.144;24.794;2023-07-29T02:24:27;20.93;;;7.60;;
5349;SDS011;2697;42.144;24.794;2023-07-29T02:26:53;29.33;;;7.93;;
5349;SDS011;2697;42.144;24.794;2023-07-29T02:29:18;8.17;;;4.80;;
5349;SDS011;2697;42.144;24.794;2023-07-29T02:31:43;7.80;;;4.63;;
5349;SDS011;2697;42.144;24.794;2023-07-29T02:34:09;16.20;;;5.00;;
5349;SDS011;2697;42.144;24.794;2023-07-29T02:36:34;13.93;;;5.30;;
5349;SDS011;2697;42.144;24.794;2023-07-29T02:39:00;9.43;;;4.07;;
5349;SDS011;2697;42.144;24.794;2023-07-29T02:41:25;19.83;;;4.67;;
5349;SDS011;2697;42.144;24.794;2023-07-29T02:43:51;10.40;;;3.97;;
5349;SDS011;2697;42.144;24.794;2023-07-29T02:46:16;8.90;;;3.97;;
5349;SDS011;2697;42.144;24.794;2023-07-29T02:48:42;22.90;;;5.97;;
5349;SDS011;2697;42.144;24.794;2023-07-29T02:51:09;13.53;;;4.13;;
5349;SDS011;2697;42.144;24.794;2023-07-29T02:53:34;9.87;;;4.97;;
5349;SDS011;2697;42.144;24.794;2023-07-29T02:56:01;10.73;;;4.90;;
5349;SDS011;2697;42.144;24.794;2023-07-29T02:58:28;13.87;;;4.47;;
5349;SDS011;2697;42.144;24.794;2023-07-29T03:00:53;13.90;;;5.00;;
5349;SDS011;2697;42.144;24.794;2023-07-29T03:03:18;17.53;;;4.57;;
5349;SDS011;2697;42.144;24.794;2023-07-29T03:05:44;11.73;;;3.80;;
5349;SDS011;2697;42.144;24.794;2023-07-29T03:08:10;15.90;;;5.03;;
5349;SDS011;2697;42.144;24.794;2023-07-29T03:10:35;10.60;;;4.40;;
5349;SDS011;2697;42.144;24.794;2023-07-29T03:13:01;10.23;;;4.93;;
5349;SDS011;2697;42.144;24.794;2023-07-29T03:15:27;8.80;;;4.30;;
5349;SDS011;2697;42.144;24.794;2023-07-29T03:17:52;15.33;;;4.67;;
5349;SDS011;2697;42.144;24.794;2023-07-29T03:20:18;7.20;;;3.77;;
5349;SDS011;2697;42.144;24.794;2023-07-29T03:22:45;14.00;;;4.90;;
5349;SDS011;2697;42.144;24.794;2023-07-29T03:25:11;14.40;;;4.37;;
5349;SDS011;2697;42.144;24.794;2023-07-29T03:27:36;20.80;;;4.90;;
5349;SDS011;2697;42.144;24.794;2023-07-29T03:30:02;15.87;;;4.47;;
5349;SDS011;2697;42.144;24.794;2023-07-29T03:32:28;23.30;;;4.53;;
5349;SDS011;2697;42.144;24.794;2023-07-29T03:34:54;15.50;;;5.77;;
5349;SDS011;2697;42.144;24.794;2023-07-29T03:37:19;27.87;;;5.90;;
5349;SDS011;2697;42.144;24.794;2023-07-29T03:39:46;13.53;;;4.97;;
5349;SDS011;2697;42.144;24.794;2023-07-29T03:42:12;17.30;;;5.50;;
5349;SDS011;2697;42.144;24.794;2023-07-29T03:44:38;14.47;;;4.30;;
5349;SDS011;2697;42.144;24.794;2023-07-29T03:47:04;21.13;;;5.70;;
5349;SDS011;2697;42.144;24.794;2023-07-29T03:49:30;44.53;;;6.43;;
5349;SDS011;2697;42.144;24.794;2023-07-29T03:51:56;31.33;;;6.03;;
5349;SDS011;2697;42.144;24.794;2023-07-29T03:54:21;33.70;;;6.30;;
5349;SDS011;2697;42.144;24.794;2023-07-29T03:56:46;23.03;;;5.90;;
5349;SDS011;2697;42.144;24.794;2023-07-29T03:59:12;35.20;;;7.27;;
5349;SDS011;2697;42.144;24.794;2023-07-29T04:01:37;16.60;;;5.23;;
5349;SDS011;2697;42.144;24.794;2023-07-29T04:04:02;25.40;;;5.50;;
5349;SDS011;2697;42.144;24.794;2023-07-29T04:06:28;21.23;;;5.30;;
5349;SDS011;2697;42.144;24.794;2023-07-29T04:08:53;34.63;;;5.50;;
5349;SDS011;2697;42.144;24.794;2023-07-29T04:11:19;22.93;;;5.13;;
5349;SDS011;2697;42.144;24.794;2023-07-29T04:13:45;28.00;;;6.20;;
5349;SDS011;2697;42.144;24.794;2023-07-29T04:16:10;43.57;;;5.47;;
5349;SDS011;2697;42.144;24.794;2023-07-29T04:18:35;42.47;;;6.30;;
5349;SDS011;2697;42.144;24.794;2023-07-29T04:21:01;34.27;;;6.63;;
5349;SDS011;2697;42.144;24.794;2023-07-29T04:23:27;32.93;;;5.10;;
5349;SDS011;2697;42.144;24.794;2023-07-29T04:25:52;20.27;;;4.60;;
5349;SDS011;2697;42.144;24.794;2023-07-29T04:28:17;29.03;;;6.27;;
5349;SDS011;2697;42.144;24.794;2023-07-29T04:30:43;38.07;;;6.23;;
5349;SDS011;2697;42.144;24.794;2023-07-29T04:33:08;38.07;;;7.50;;
5349;SDS011;2697;42.144;24.794;2023-07-29T04:35:33;56.43;;;6.43;;
5349;SDS011;2697;42.144;24.794;2023-07-29T04:37:59;30.33;;;8.23;;
5349;SDS011;2697;42.144;24.794;2023-07-29T04:40:24;29.47;;;7.70;;
5349;SDS011;2697;42.144;24.794;2023-07-29T04:42:50;23.60;;;6.30;;
5349;SDS011;2697;42.144;24.794;2023-07-29T04:45:16;31.40;;;7.97;;
5349;SDS011;2697;42.144;24.794;2023-07-29T04:47:42;44.73;;;6.77;;
5349;SDS011;2697;42.144;24.794;2023-07-29T04:50:08;25.40;;;5.47;;
5349;SDS011;2697;42.144;24.794;2023-07-29T04:52:34;20.83;;;6.43;;
5349;SDS011;2697;42.144;24.794;2023-07-29T04:54:59;11.50;;;5.60;;
5349;SDS011;2697;42.144;24.794;2023-07-29T04:57:24;24.50;;;5.73;;
5349;SDS011;2697;42.144;24.794;2023-07-29T04:59:50;12.30;;;5.70;;
5349;SDS011;2697;42.144;24.794;2023-07-29T05:02:15;19.07;;;5.80;;
5349;SDS011;2697;42.144;24.794;2023-07-29T05:04:40;37.20;;;5.40;;
5349;SDS011;2697;42.144;24.794;2023-07-29T05:07:07;15.00;;;4.67;;
5349;SDS011;2697;42.144;24.794;2023-07-29T05:09:32;21.13;;;7.20;;
5349;SDS011;2697;42.144;24.794;2023-07-29T05:11:58;10.57;;;4.83;;
5349;SDS011;2697;42.144;24.794;2023-07-29T05:14:23;26.70;;;6.20;;
5349;SDS011;2697;42.144;24.794;2023-07-29T05:16:49;16.60;;;4.40;;
5349;SDS011;2697;42.144;24.794;2023-07-29T05:19:14;8.73;;;3.30;;
5349;SDS011;2697;42.144;24.794;2023-07-29T05:21:39;7.20;;;3.47;;
5349;SDS011;2697;42.144;24.794;2023-07-29T05:24:05;5.10;;;3.60;;
5349;SDS011;2697;42.144;24.794;2023-07-29T05:26:31;7.78;;;3.45;;
5349;SDS011;2697;42.144;24.794;2023-07-29T05:28:56;8.32;;;4.10;;
5349;SDS011;2697;42.144;24.794;2023-07-29T05:31:21;10.15;;;3.38;;
5349;SDS011;2697;42.144;24.794;2023-07-29T05:33:47;10.57;;;4.47;;
5349;SDS011;2697;42.144;24.794;2023-07-29T05:36:13;7.10;;;3.17;;
5349;SDS011;2697;42.144;24.794;2023-07-29T05:38:38;6.78;;;4.60;;
5349;SDS011;2697;42.144;24.794;2023-07-29T05:41:03;12.45;;;3.80;;
5349;SDS011;2697;42.144;24.794;2023-07-29T05:43:29;12.25;;;3.47;;
5349;SDS011;2697;42.144;24.794;2023-07-29T05:45:54;6.95;;;4.25;;
5349;SDS011;2697;42.144;24.794;2023-07-29T05:48:20;12.27;;;2.95;;
5349;SDS011;2697;42.144;24.794;2023-07-29T05:50:45;6.82;;;3.50;;
5349;SDS011;2697;42.144;24.794;2023-07-29T05:53:11;5.80;;;3.15;;
5349;SDS011;2697;42.144;24.794;2023-07-29T05:55:36;4.20;;;3.25;;
5349;SDS011;2697;42.144;24.794;2023-07-29T05:58:02;7.78;;;3.78;;
5349;SDS011;2697;42.144;24.794;2023-07-29T06:00:27;11.48;;;3.42;;
5349;SDS011;2697;42.144;24.794;2023-07-29T06:02:52;17.95;;;4.32;;
5349;SDS011;2697;42.144;24.794;2023-07-29T06:05:18;11.15;;;3.70;;
5349;SDS011;2697;42.144;24.794;2023-07-29T06:07:43;20.17;;;3.08;;
5349;SDS011;2697;42.144;24.794;2023-07-29T06:10:10;7.88;;;3.22;;
5349;SDS011;2697;42.144;24.794;2023-07-29T06:12:38;5.40;;;3.60;;
5349;SDS011;2697;42.144;24.794;2023-07-29T06:15:04;8.50;;;3.55;;
5349;SDS011;2697;42.144;24.794;2023-07-29T06:17:30;7.47;;;2.72;;
5349;SDS011;2697;42.144;24.794;2023-07-29T06:19:55;19.55;;;3.50;;
5349;SDS011;2697;42.144;24.794;2023-07-29T06:22:21;11.32;;;3.55;;
5349;SDS011;2697;42.144;24.794;2023-07-29T06:24:46;17.25;;;3.15;;
5349;SDS011;2697;42.144;24.794;2023-07-29T06:27:12;8.30;;;3.63;;
5349;SDS011;2697;42.144;24.794;2023-07-29T06:29:37;14.95;;;3.38;;
5349;SDS011;2697;42.144;24.794;2023-07-29T06:32:02;6.97;;;3.45;;
5349;SDS011;2697;42.144;24.794;2023-07-29T06:34:28;3.08;;;2.88;;
5349;SDS011;2697;42.144;24.794;2023-07-29T06:36:53;3.55;;;3.20;;
5349;SDS011;2697;42.144;24.794;2023-07-29T06:39:19;8.98;;;2.75;;
5349;SDS011;2697;42.144;24.794;2023-07-29T06:41:44;3.28;;;2.97;;
5349;SDS011;2697;42.144;24.794;2023-07-29T06:44:09;10.57;;;2.90;;
5349;SDS011;2697;42.144;24.794;2023-07-29T06:46:35;9.25;;;2.88;;
5349;SDS011;2697;42.144;24.794;2023-07-29T06:49:00;7.13;;;2.58;;
5349;SDS011;2697;42.144;24.794;2023-07-29T06:51:26;9.57;;;2.95;;
5349;SDS011;2697;42.144;24.794;2023-07-29T06:53:51;4.82;;;2.28;;
5349;SDS011;2697;42.144;24.794;2023-07-29T06:56:17;7.50;;;2.88;;
5349;SDS011;2697;42.144;24.794;2023-07-29T06:58:42;6.57;;;3.00;;
5349;SDS011;2697;42.144;24.794;2023-07-29T07:01:08;6.47;;;2.90;;
5349;SDS011;2697;42.144;24.794;2023-07-29T07:03:33;11.32;;;3.22;;
5349;SDS011;2697;42.144;24.794;2023-07-29T07:05:58;8.05;;;3.22;;
5349;SDS011;2697;42.144;24.794;2023-07-29T07:08:24;4.15;;;3.00;;
5349;SDS011;2697;42.144;24.794;2023-07-29T07:10:49;6.07;;;3.05;;
5349;SDS011;2697;42.144;24.794;2023-07-29T07:13:14;6.47;;;2.78;;
5349;SDS011;2697;42.144;24.794;2023-07-29T07:15:40;4.03;;;2.33;;
5349;SDS011;2697;42.144;24.794;2023-07-29T07:18:05;2.85;;;2.65;;
5349;SDS011;2697;42.144;24.794;2023-07-29T07:20:30;7.32;;;3.58;;
5349;SDS011;2697;42.144;24.794;2023-07-29T07:22:56;5.55;;;2.53;;
5349;SDS011;2697;42.144;24.794;2023-07-29T07:25:21;7.85;;;3.30;;
5349;SDS011;2697;42.144;24.794;2023-07-29T07:27:47;5.28;;;2.58;;
5349;SDS011;2697;42.144;24.794;2023-07-29T07:30:13;12.85;;;3.05;;
5349;SDS011;2697;42.144;24.794;2023-07-29T07:32:39;7.28;;;3.05;;
5349;SDS011;2697;42.144;24.794;2023-07-29T07:35:04;7.38;;;2.70;;
5349;SDS011;2697;42.144;24.794;2023-07-29T07:37:30;8.13;;;3.22;;
5349;SDS011;2697;42.144;24.794;2023-07-29T07:39:55;8.68;;;2.15;;
5349;SDS011;2697;42.144;24.794;2023-07-29T07:42:21;6.13;;;2.70;;
5349;SDS011;2697;42.144;24.794;2023-07-29T07:44:46;5.82;;;3.10;;
5349;SDS011;2697;42.144;24.794;2023-07-29T07:47:11;4.32;;;2.88;;
5349;SDS011;2697;42.144;24.794;2023-07-29T07:49:37;9.20;;;2.50;;
5349;SDS011;2697;42.144;24.794;2023-07-29T07:52:02;10.27;;;2.97;;
5349;SDS011;2697;42.144;24.794;2023-07-29T07:54:27;12.23;;;5.30;;
5349;SDS011;2697;42.144;24.794;2023-07-29T07:56:53;4.38;;;3.00;;
5349;SDS011;2697;42.144;24.794;2023-07-29T07:59:18;3.38;;;2.92;;
5349;SDS011;2697;42.144;24.794;2023-07-29T08:01:43;4.95;;;2.92;;
5349;SDS011;2697;42.144;24.794;2023-07-29T08:04:09;11.32;;;3.25;;
5349;SDS011;2697;42.144;24.794;2023-07-29T08:06:34;7.35;;;3.45;;
5349;SDS011;2697;42.144;24.794;2023-07-29T08:09:00;9.32;;;3.33;;
5349;SDS011;2697;42.144;24.794;2023-07-29T08:11:26;9.73;;;3.20;;
5349;SDS011;2697;42.144;24.794;2023-07-29T08:13:51;9.30;;;3.00;;
5349;SDS011;2697;42.144;24.794;2023-07-29T08:16:16;10.60;;;2.95;;
5349;SDS011;2697;42.144;24.794;2023-07-29T08:18:42;6.65;;;3.78;;
5349;SDS011;2697;42.144;24.794;2023-07-29T08:21:07;10.98;;;3.50;;
5349;SDS011;2697;42.144;24.794;2023-07-29T08:23:33;9.87;;;3.70;;
5349;SDS011;2697;42.144;24.794;2023-07-29T08:26:01;10.80;;;3.90;;
5349;SDS011;2697;42.144;24.794;2023-07-29T08:28:34;5.30;;;3.60;;
5349;SDS011;2697;42.144;24.794;2023-07-29T08:31:01;7.60;;;3.30;;
5349;SDS011;2697;42.144;24.794;2023-07-29T08:33:27;3.67;;;3.13;;
5349;SDS011;2697;42.144;24.794;2023-07-29T08:35:52;5.37;;;3.43;;
5349;SDS011;2697;42.144;24.794;2023-07-29T08:38:19;8.20;;;3.30;;
5349;SDS011;2697;42.144;24.794;2023-07-29T08:40:45;8.73;;;3.23;;
5349;SDS011;2697;42.144;24.794;2023-07-29T08:43:18;6.80;;;3.87;;
5349;SDS011;2697;42.144;24.794;2023-07-29T08:45:45;8.33;;;3.73;;
5349;SDS011;2697;42.144;24.794;2023-07-29T08:48:11;8.30;;;3.10;;
5349;SDS011;2697;42.144;24.794;2023-07-29T08:50:41;5.83;;;3.23;;
5349;SDS011;2697;42.144;24.794;2023-07-29T08:53:09;7.13;;;4.40;;
5349;SDS011;2697;42.144;24.794;2023-07-29T08:55:35;9.40;;;4.57;;
5349;SDS011;2697;42.144;24.794;2023-07-29T08:58:00;7.90;;;3.80;;
5349;SDS011;2697;42.144;24.794;2023-07-29T09:00:27;7.18;;;4.55;;
5349;SDS011;2697;42.144;24.794;2023-07-29T09:02:53;5.83;;;3.93;;
5349;SDS011;2697;42.144;24.794;2023-07-29T09:05:20;5.10;;;4.03;;
5349;SDS011;2697;42.144;24.794;2023-07-29T09:07:46;8.25;;;5.13;;
5349;SDS011;2697;42.144;24.794;2023-07-29T09:10:13;7.00;;;4.25;;
5349;SDS011;2697;42.144;24.794;2023-07-29T09:12:39;5.53;;;4.53;;
5349;SDS011;2697;42.144;24.794;2023-07-29T09:15:05;8.30;;;4.00;;
5349;SDS011;2697;42.144;24.794;2023-07-29T09:17:33;7.68;;;3.90;;
5349;SDS011;2697;42.144;24.794;2023-07-29T09:19:59;3.83;;;3.00;;
5349;SDS011;2697;42.144;24.794;2023-07-29T09:22:26;7.03;;;3.43;;
5349;SDS011;2697;42.144;24.794;2023-07-29T09:24:52;4.20;;;3.67;;
5349;SDS011;2697;42.144;24.794;2023-07-29T09:27:27;10.07;;;3.83;;
5349;SDS011;2697;42.144;24.794;2023-07-29T09:29:56;9.00;;;3.70;;
5349;SDS011;2697;42.144;24.794;2023-07-29T09:32:23;6.50;;;3.50;;
5349;SDS011;2697;42.144;24.794;2023-07-29T09:34:50;18.77;;;3.83;;
5349;SDS011;2697;42.144;24.794;2023-07-29T09:37:16;4.77;;;3.50;;
5349;SDS011;2697;42.144;24.794;2023-07-29T09:39:51;5.20;;;3.03;;
5349;SDS011;2697;42.144;24.794;2023-07-29T09:42:20;3.40;;;3.07;;
5349;SDS011;2697;42.144;24.794;2023-07-29T09:44:47;3.40;;;2.83;;
5349;SDS011;2697;42.144;24.794;2023-07-29T09:47:24;11.97;;;2.80;;
5349;SDS011;2697;42.144;24.794;2023-07-29T09:49:51;6.70;;;3.40;;
5349;SDS011;2697;42.144;24.794;2023-07-29T09:52:17;3.70;;;2.10;;
5349;SDS011;2697;42.144;24.794;2023-07-29T09:54:44;3.80;;;2.73;;
5349;SDS011;2697;42.144;24.794;2023-07-29T09:57:13;4.40;;;2.80;;
5349;SDS011;2697;42.144;24.794;2023-07-29T09:59:40;3.15;;;2.67;;
5349;SDS011;2697;42.144;24.794;2023-07-29T10:02:10;3.53;;;3.23;;
5349;SDS011;2697;42.144;24.794;2023-07-29T10:04:43;6.70;;;3.03;;
5349;SDS011;2697;42.144;24.794;2023-07-29T10:07:10;8.38;;;2.80;;
5349;SDS011;2697;42.144;24.794;2023-07-29T10:09:37;4.10;;;3.28;;
5349;SDS011;2697;42.144;24.794;2023-07-29T10:12:04;4.50;;;2.53;;
5349;SDS011;2697;42.144;24.794;2023-07-29T10:14:31;4.10;;;2.80;;
5349;SDS011;2697;42.144;24.794;2023-07-29T10:16:57;2.78;;;2.20;;
5349;SDS011;2697;42.144;24.794;2023-07-29T10:19:24;17.63;;;2.97;;
5349;SDS011;2697;42.144;24.794;2023-07-29T10:21:51;3.97;;;2.50;;
5349;SDS011;2697;42.144;24.794;2023-07-29T10:24:22;6.28;;;2.80;;
5349;SDS011;2697;42.144;24.794;2023-07-29T10:26:54;5.57;;;3.10;;
5349;SDS011;2697;42.144;24.794;2023-07-29T10:29:23;13.57;;;2.47;;
5349;SDS011;2697;42.144;24.794;2023-07-29T10:31:49;3.30;;;2.70;;
5349;SDS011;2697;42.144;24.794;2023-07-29T10:34:18;3.63;;;2.50;;
5349;SDS011;2697;42.144;24.794;2023-07-29T10:36:45;2.53;;;2.33;;
5349;SDS011;2697;42.144;24.794;2023-07-29T10:39:11;12.50;;;2.85;;
5349;SDS011;2697;42.144;24.794;2023-07-29T10:41:56;4.82;;;2.78;;
5349;SDS011;2697;42.144;24.794;2023-07-29T10:49:59;2.45;;;2.20;;
5349;SDS011;2697;42.144;24.794;2023-07-29T10:52:28;2.47;;;2.28;;
5349;SDS011;2697;42.144;24.794;2023-07-29T10:54:55;5.57;;;2.35;;
5349;SDS011;2697;42.144;24.794;2023-07-29T10:57:39;9.55;;;2.83;;
5349;SDS011;2697;42.144;24.794;2023-07-29T11:00:07;4.45;;;2.50;;
5349;SDS011;2697;42.144;24.794;2023-07-29T11:02:36;2.92;;;2.50;;
5349;SDS011;2697;42.144;24.794;2023-07-29T11:05:06;2.70;;;2.50;;
5349;SDS011;2697;42.144;24.794;2023-07-29T11:07:44;3.72;;;2.58;;
5349;SDS011;2697;42.144;24.794;2023-07-29T11:10:11;4.43;;;2.67;;
5349;SDS011;2697;42.144;24.794;2023-07-29T11:15:17;3.72;;;2.13;;
5349;SDS011;2697;42.144;24.794;2023-07-29T11:17:52;6.20;;;2.50;;
5349;SDS011;2697;42.144;24.794;2023-07-29T11:20:21;2.50;;;2.30;;
5349;SDS011;2697;42.144;24.794;2023-07-29T11:22:51;2.95;;;2.53;;
5349;SDS011;2697;42.144;24.794;2023-07-29T11:25:17;2.80;;;2.45;;
5349;SDS011;2697;42.144;24.794;2023-07-29T11:27:44;2.47;;;2.28;;
5349;SDS011;2697;42.144;24.794;2023-07-29T11:30:11;3.08;;;2.08;;
5349;SDS011;2697;42.144;24.794;2023-07-29T11:32:39;7.65;;;2.20;;
5349;SDS011;2697;42.144;24.794;2023-07-29T11:35:13;3.30;;;2.38;;
5349;SDS011;2697;42.144;24.794;2023-07-29T11:37:41;2.72;;;2.25;;
5349;SDS011;2697;42.144;24.794;2023-07-29T11:40:07;2.60;;;2.13;;
5349;SDS011;2697;42.144;24.794;2023-07-29T11:42:37;1.80;;;1.70;;
5349;SDS011;2697;42.144;24.794;2023-07-29T11:45:03;6.85;;;1.58;;
5349;SDS011;2697;42.144;24.794;2023-07-29T11:47:31;2.13;;;1.80;;
5349;SDS011;2697;42.144;24.794;2023-07-29T11:50:01;3.45;;;1.70;;
5349;SDS011;2697;42.144;24.794;2023-07-29T11:52:27;2.25;;;2.03;;
5349;SDS011;2697;42.144;24.794;2023-07-29T11:54:53;9.35;;;2.00;;
5349;SDS011;2697;42.144;24.794;2023-07-29T11:57:19;1.65;;;1.55;;
5349;SDS011;2697;42.144;24.794;2023-07-29T11:59:46;2.78;;;1.98;;
5349;SDS011;2697;42.144;24.794;2023-07-29T12:02:13;2.17;;;1.98;;
5349;SDS011;2697;42.144;24.794;2023-07-29T12:04:41;2.28;;;2.03;;
5349;SDS011;2697;42.144;24.794;2023-07-29T12:07:07;1.70;;;1.60;;
5349;SDS011;2697;42.144;24.794;2023-07-29T12:09:33;1.65;;;1.55;;
5349;SDS011;2697;42.144;24.794;2023-07-29T12:11:59;5.75;;;2.08;;
5349;SDS011;2697;42.144;24.794;2023-07-29T12:14:28;1.70;;;1.55;;
5349;SDS011;2697;42.144;24.794;2023-07-29T12:16:54;1.98;;;1.52;;
5349;SDS011;2697;42.144;24.794;2023-07-29T12:19:19;1.48;;;1.38;;
5349;SDS011;2697;42.144;24.794;2023-07-29T12:21:47;1.50;;;1.40;;
5349;SDS011;2697;42.144;24.794;2023-07-29T12:24:13;1.67;;;1.48;;
5349;SDS011;2697;42.144;24.794;2023-07-29T12:26:40;1.58;;;1.33;;
5349;SDS011;2697;42.144;24.794;2023-07-29T12:31:44;1.98;;;1.77;;
5349;SDS011;2697;42.144;24.794;2023-07-29T12:34:10;1.95;;;1.77;;
5349;SDS011;2697;42.144;24.794;2023-07-29T12:36:42;3.00;;;1.30;;
5349;SDS011;2697;42.144;24.794;2023-07-29T12:39:17;1.10;;;1.10;;
5349;SDS011;2697;42.144;24.794;2023-07-29T12:41:43;1.25;;;1.15;;
5349;SDS011;2697;42.144;24.794;2023-07-29T12:44:08;1.08;;;1.08;;
5349;SDS011;2697;42.144;24.794;2023-07-29T12:46:33;3.78;;;1.42;;
5349;SDS011;2697;42.144;24.794;2023-07-29T12:48:59;1.27;;;1.17;;
5349;SDS011;2697;42.144;24.794;2023-07-29T12:51:24;1.40;;;1.30;;
5349;SDS011;2697;42.144;24.794;2023-07-29T12:53:49;3.38;;;1.85;;
5349;SDS011;2697;42.144;24.794;2023-07-29T12:56:15;1.55;;;1.45;;
5349;SDS011;2697;42.144;24.794;2023-07-29T12:58:41;1.45;;;1.35;;
5349;SDS011;2697;42.144;24.794;2023-07-29T13:01:06;1.30;;;1.20;;
5349;SDS011;2697;42.144;24.794;2023-07-29T13:03:31;1.40;;;1.30;;
5349;SDS011;2697;42.144;24.794;2023-07-29T13:05:57;2.03;;;1.20;;
5349;SDS011;2697;42.144;24.794;2023-07-29T13:08:22;1.58;;;1.48;;
5349;SDS011;2697;42.144;24.794;2023-07-29T13:10:48;1.77;;;1.23;;
5349;SDS011;2697;42.144;24.794;2023-07-29T13:13:13;2.65;;;1.52;;
5349;SDS011;2697;42.144;24.794;2023-07-29T13:15:39;2.13;;;1.42;;
5349;SDS011;2697;42.144;24.794;2023-07-29T13:18:04;2.92;;;1.08;;
5349;SDS011;2697;42.144;24.794;2023-07-29T13:20:29;2.65;;;1.40;;
5349;SDS011;2697;42.144;24.794;2023-07-29T13:22:55;2.25;;;1.10;;
5349;SDS011;2697;42.144;24.794;2023-07-29T13:25:20;1.58;;;1.48;;
5349;SDS011;2697;42.144;24.794;2023-07-29T13:27:46;1.40;;;1.30;;
5349;SDS011;2697;42.144;24.794;2023-07-29T13:30:11;2.05;;;1.67;;
5349;SDS011;2697;42.144;24.794;2023-07-29T13:32:36;1.25;;;1.20;;
5349;SDS011;2697;42.144;24.794;2023-07-29T13:35:03;1.95;;;1.40;;
5349;SDS011;2697;42.144;24.794;2023-07-29T13:37:28;1.63;;;1.45;;
5349;SDS011;2697;42.144;24.794;2023-07-29T13:39:54;4.07;;;1.55;;
5349;SDS011;2697;42.144;24.794;2023-07-29T13:42:19;1.80;;;1.52;;
5349;SDS011;2697;42.144;24.794;2023-07-29T13:44:44;1.40;;;1.30;;
5349;SDS011;2697;42.144;24.794;2023-07-29T13:47:10;1.10;;;1.00;;
5349;SDS011;2697;42.144;24.794;2023-07-29T13:49:35;2.20;;;1.00;;
5349;SDS011;2697;42.144;24.794;2023-07-29T13:52:00;1.20;;;1.10;;
5349;SDS011;2697;42.144;24.794;2023-07-29T13:54:26;1.83;;;1.50;;
5349;SDS011;2697;42.144;24.794;2023-07-29T13:56:53;1.02;;;1.02;;
5349;SDS011;2697;42.144;24.794;2023-07-29T13:59:19;6.60;;;0.90;;
5349;SDS011;2697;42.144;24.794;2023-07-29T14:01:44;0.90;;;0.90;;
5349;SDS011;2697;42.144;24.794;2023-07-29T14:04:09;1.02;;;1.02;;
5349;SDS011;2697;42.144;24.794;2023-07-29T14:06:35;1.60;;;1.42;;
5349;SDS011;2697;42.144;24.794;2023-07-29T14:09:00;1.20;;;1.10;;
5349;SDS011;2697;42.144;24.794;2023-07-29T14:11:26;1.00;;;0.90;;
5349;SDS011;2697;42.144;24.794;2023-07-29T14:13:51;1.88;;;1.45;;
5349;SDS011;2697;42.144;24.794;2023-07-29T14:16:16;1.77;;;1.67;;
5349;SDS011;2697;42.144;24.794;2023-07-29T14:18:42;1.85;;;1.25;;
5349;SDS011;2697;42.144;24.794;2023-07-29T14:21:07;1.05;;;1.05;;
5349;SDS011;2697;42.144;24.794;2023-07-29T14:23:32;1.17;;;1.08;;
5349;SDS011;2697;42.144;24.794;2023-07-29T14:25:58;2.25;;;1.00;;
5349;SDS011;2697;42.144;24.794;2023-07-29T14:28:23;1.23;;;1.00;;
5349;SDS011;2697;42.144;24.794;2023-07-29T14:30:48;1.20;;;1.10;;
5349;SDS011;2697;42.144;24.794;2023-07-29T14:33:14;1.60;;;1.48;;
5349;SDS011;2697;42.144;24.794;2023-07-29T14:35:39;2.10;;;1.67;;
5349;SDS011;2697;42.144;24.794;2023-07-29T14:38:05;5.97;;;1.60;;
5349;SDS011;2697;42.144;24.794;2023-07-29T14:40:30;1.10;;;1.10;;
5349;SDS011;2697;42.144;24.794;2023-07-29T14:42:56;1.48;;;1.38;;
5349;SDS011;2697;42.144;24.794;2023-07-29T14:45:21;2.20;;;1.10;;
5349;SDS011;2697;42.144;24.794;2023-07-29T14:47:46;2.05;;;1.23;;
5349;SDS011;2697;42.144;24.794;2023-07-29T14:50:12;4.90;;;1.02;;
5349;SDS011;2697;42.144;24.794;2023-07-29T14:52:37;3.72;;;1.38;;
5349;SDS011;2697;42.144;24.794;2023-07-29T14:55:02;1.25;;;1.15;;
5349;SDS011;2697;42.144;24.794;2023-07-29T14:57:29;1.85;;;1.50;;
5349;SDS011;2697;42.144;24.794;2023-07-29T14:59:54;1.48;;;1.38;;
5349;SDS011;2697;42.144;24.794;2023-07-29T15:02:19;2.28;;;1.80;;
5349;SDS011;2697;42.144;24.794;2023-07-29T15:04:45;3.15;;;2.83;;
5349;SDS011;2697;42.144;24.794;2023-07-29T15:07:10;2.63;;;2.42;;
5349;SDS011;2697;42.144;24.794;2023-07-29T15:09:36;7.75;;;1.92;;
5349;SDS011;2697;42.144;24.794;2023-07-29T15:12:01;1.30;;;1.20;;
5349;SDS011;2697;42.144;24.794;2023-07-29T15:14:27;2.35;;;1.60;;